sensor_id;sensor_type;location;lat;lon;timestamp;P1;durP1;ratioP1;P2;durP2;ratioP2
37455;SDS011;23316;50.718;7.328;2023-12-04T00:01:13;23.48;;;13.40;;
37455;SDS011;23316;50.718;7.328;2023-12-04T00:03:40;23.48;;;12.70;;
37455;SDS011;23316;50.718;7.328;2023-12-04T00:06:09;25.30;;;13.40;;
37455;SDS011;23316;50.718;7.328;2023-12-04T00:08:37;25.00;;;13.35;;
37455;SDS011;23316;50.718;7.328;2023-12-04T00:11:05;23.20;;;12.82;;
37455;SDS011;23316;50.718;7.328;2023-12-04T00:13:33;23.50;;;12.90;;
37455;SDS011;23316;50.718;7.328;2023-12-04T00:16:00;22.83;;;12.90;;
37455;SDS011;23316;50.718;7.328;2023-12-04T00:18:28;22.95;;;11.98;;
37455;SDS011;23316;50.718;7.328;2023-12-04T00:20:55;22.63;;;12.02;;
37455;SDS011;23316;50.718;7.328;2023-12-04T00:23:24;23.08;;;12.45;;
37455;SDS011;23316;50.718;7.328;2023-12-04T00:25:51;22.42;;;12.75;;
37455;SDS011;23316;50.718;7.328;2023-12-04T00:28:18;21.75;;;11.90;;
37455;SDS011;23316;50.718;7.328;2023-12-04T00:30:46;21.17;;;12.18;;
37455;SDS011;23316;50.718;7.328;2023-12-04T00:33:13;23.08;;;12.63;;
37455;SDS011;23316;50.718;7.328;2023-12-04T00:35:41;20.73;;;12.13;;
37455;SDS011;23316;50.718;7.328;2023-12-04T00:38:08;21.73;;;11.90;;
37455;SDS011;23316;50.718;7.328;2023-12-04T00:40:36;23.90;;;12.48;;
37455;SDS011;23316;50.718;7.328;2023-12-04T00:43:04;21.88;;;12.13;;
37455;SDS011;23316;50.718;7.328;2023-12-04T00:45:31;22.67;;;12.35;;
37455;SDS011;23316;50.718;7.328;2023-12-04T00:47:58;22.35;;;12.02;;
37455;SDS011;23316;50.718;7.328;2023-12-04T00:50:25;19.23;;;11.27;;
37455;SDS011;23316;50.718;7.328;2023-12-04T00:52:52;21.08;;;12.25;;
37455;SDS011;23316;50.718;7.328;2023-12-04T00:55:20;23.45;;;10.93;;
37455;SDS011;23316;50.718;7.328;2023-12-04T00:57:48;24.50;;;11.45;;
37455;SDS011;23316;50.718;7.328;2023-12-04T01:00:16;20.23;;;11.60;;
37455;SDS011;23316;50.718;7.328;2023-12-04T01:02:43;19.50;;;10.93;;
37455;SDS011;23316;50.718;7.328;2023-12-04T01:05:10;20.30;;;11.30;;
37455;SDS011;23316;50.718;7.328;2023-12-04T01:07:37;21.27;;;11.98;;
37455;SDS011;23316;50.718;7.328;2023-12-04T01:10:05;21.35;;;11.40;;
37455;SDS011;23316;50.718;7.328;2023-12-04T01:12:33;19.02;;;11.00;;
37455;SDS011;23316;50.718;7.328;2023-12-04T01:15:02;22.08;;;11.43;;
37455;SDS011;23316;50.718;7.328;2023-12-04T01:17:29;20.10;;;11.10;;
37455;SDS011;23316;50.718;7.328;2023-12-04T01:19:57;20.35;;;11.18;;
37455;SDS011;23316;50.718;7.328;2023-12-04T01:22:24;19.50;;;11.43;;
37455;SDS011;23316;50.718;7.328;2023-12-04T01:24:51;22.63;;;12.13;;
37455;SDS011;23316;50.718;7.328;2023-12-04T01:27:18;20.45;;;11.40;;
37455;SDS011;23316;50.718;7.328;2023-12-04T01:29:46;19.40;;;11.20;;
37455;SDS011;23316;50.718;7.328;2023-12-04T01:32:14;20.33;;;11.30;;
37455;SDS011;23316;50.718;7.328;2023-12-04T01:34:41;19.90;;;11.40;;
37455;SDS011;23316;50.718;7.328;2023-12-04T01:37:09;19.63;;;10.35;;
37455;SDS011;23316;50.718;7.328;2023-12-04T01:39:37;21.73;;;11.93;;
37455;SDS011;23316;50.718;7.328;2023-12-04T01:42:04;19.02;;;10.15;;
37455;SDS011;23316;50.718;7.328;2023-12-04T01:44:31;21.08;;;11.15;;
37455;SDS011;23316;50.718;7.328;2023-12-04T01:46:58;19.33;;;10.15;;
37455;SDS011;23316;50.718;7.328;2023-12-04T01:49:27;18.48;;;11.02;;
37455;SDS011;23316;50.718;7.328;2023-12-04T01:51:54;19.98;;;10.75;;
37455;SDS011;23316;50.718;7.328;2023-12-04T01:54:22;19.65;;;10.43;;
37455;SDS011;23316;50.718;7.328;2023-12-04T01:56:50;18.88;;;10.35;;
37455;SDS011;23316;50.718;7.328;2023-12-04T01:59:18;22.38;;;11.00;;
37455;SDS011;23316;50.718;7.328;2023-12-04T02:01:45;22.67;;;10.73;;
37455;SDS011;23316;50.718;7.328;2023-12-04T02:04:13;17.95;;;10.55;;
37455;SDS011;23316;50.718;7.328;2023-12-04T02:06:41;18.98;;;11.05;;
37455;SDS011;23316;50.718;7.328;2023-12-04T02:09:09;19.88;;;10.63;;
37455;SDS011;23316;50.718;7.328;2023-12-04T02:11:38;20.25;;;10.65;;
37455;SDS011;23316;50.718;7.328;2023-12-04T02:14:05;17.70;;;10.60;;
37455;SDS011;23316;50.718;7.328;2023-12-04T02:16:33;19.23;;;10.27;;
37455;SDS011;23316;50.718;7.328;2023-12-04T02:19:05;21.80;;;10.77;;
37455;SDS011;23316;50.718;7.328;2023-12-04T02:21:34;21.63;;;10.70;;
37455;SDS011;23316;50.718;7.328;2023-12-04T02:24:03;19.23;;;10.60;;
37455;SDS011;23316;50.718;7.328;2023-12-04T02:26:32;19.70;;;10.57;;
37455;SDS011;23316;50.718;7.328;2023-12-04T02:29:03;20.13;;;11.00;;
37455;SDS011;23316;50.718;7.328;2023-12-04T02:31:34;20.90;;;10.77;;
37455;SDS011;23316;50.718;7.328;2023-12-04T02:34:03;19.75;;;11.27;;
37455;SDS011;23316;50.718;7.328;2023-12-04T02:36:33;20.60;;;11.25;;
37455;SDS011;23316;50.718;7.328;2023-12-04T02:39:04;19.67;;;11.38;;
37455;SDS011;23316;50.718;7.328;2023-12-04T02:41:31;21.00;;;10.73;;
37455;SDS011;23316;50.718;7.328;2023-12-04T02:43:58;20.40;;;10.75;;
37455;SDS011;23316;50.718;7.328;2023-12-04T02:46:26;20.05;;;10.88;;
37455;SDS011;23316;50.718;7.328;2023-12-04T02:48:53;23.15;;;12.20;;
37455;SDS011;23316;50.718;7.328;2023-12-04T02:51:20;17.92;;;10.57;;
37455;SDS011;23316;50.718;7.328;2023-12-04T02:53:47;20.10;;;10.75;;
37455;SDS011;23316;50.718;7.328;2023-12-04T02:56:16;18.35;;;10.40;;
37455;SDS011;23316;50.718;7.328;2023-12-04T02:58:43;24.63;;;11.63;;
37455;SDS011;23316;50.718;7.328;2023-12-04T03:01:10;20.25;;;11.20;;
37455;SDS011;23316;50.718;7.328;2023-12-04T03:03:37;19.48;;;10.68;;
37455;SDS011;23316;50.718;7.328;2023-12-04T03:06:05;20.85;;;10.65;;
37455;SDS011;23316;50.718;7.328;2023-12-04T03:08:33;20.52;;;11.98;;
37455;SDS011;23316;50.718;7.328;2023-12-04T03:11:01;21.42;;;11.65;;
37455;SDS011;23316;50.718;7.328;2023-12-04T03:13:30;20.10;;;11.43;;
37455;SDS011;23316;50.718;7.328;2023-12-04T03:15:58;18.63;;;10.48;;
37455;SDS011;23316;50.718;7.328;2023-12-04T03:18:25;19.63;;;10.82;;
37455;SDS011;23316;50.718;7.328;2023-12-04T03:20:54;22.40;;;11.73;;
37455;SDS011;23316;50.718;7.328;2023-12-04T03:23:21;20.05;;;11.85;;
37455;SDS011;23316;50.718;7.328;2023-12-04T03:25:48;22.77;;;12.02;;
37455;SDS011;23316;50.718;7.328;2023-12-04T03:28:16;22.10;;;11.75;;
37455;SDS011;23316;50.718;7.328;2023-12-04T03:30:44;20.35;;;11.52;;
37455;SDS011;23316;50.718;7.328;2023-12-04T03:33:11;21.42;;;12.18;;
37455;SDS011;23316;50.718;7.328;2023-12-04T03:35:39;26.20;;;12.88;;
37455;SDS011;23316;50.718;7.328;2023-12-04T03:38:06;22.33;;;11.93;;
37455;SDS011;23316;50.718;7.328;2023-12-04T03:40:34;21.38;;;12.52;;
37455;SDS011;23316;50.718;7.328;2023-12-04T03:43:01;21.42;;;11.70;;
37455;SDS011;23316;50.718;7.328;2023-12-04T03:45:28;21.10;;;12.10;;
37455;SDS011;23316;50.718;7.328;2023-12-04T03:47:57;23.02;;;12.00;;
37455;SDS011;23316;50.718;7.328;2023-12-04T03:50:25;24.35;;;11.82;;
37455;SDS011;23316;50.718;7.328;2023-12-04T03:52:52;21.00;;;11.98;;
37455;SDS011;23316;50.718;7.328;2023-12-04T03:55:19;23.15;;;12.35;;
37455;SDS011;23316;50.718;7.328;2023-12-04T03:57:46;23.30;;;12.27;;
37455;SDS011;23316;50.718;7.328;2023-12-04T04:00:14;21.80;;;12.07;;
37455;SDS011;23316;50.718;7.328;2023-12-04T04:02:42;21.60;;;11.90;;
37455;SDS011;23316;50.718;7.328;2023-12-04T04:05:11;21.63;;;12.10;;
37455;SDS011;23316;50.718;7.328;2023-12-04T04:07:39;19.70;;;10.77;;
37455;SDS011;23316;50.718;7.328;2023-12-04T04:10:07;20.58;;;11.50;;
37455;SDS011;23316;50.718;7.328;2023-12-04T04:12:34;25.30;;;12.93;;
37455;SDS011;23316;50.718;7.328;2023-12-04T04:15:02;22.67;;;12.32;;
37455;SDS011;23316;50.718;7.328;2023-12-04T04:17:29;23.83;;;12.10;;
37455;SDS011;23316;50.718;7.328;2023-12-04T04:19:59;26.23;;;11.98;;
37455;SDS011;23316;50.718;7.328;2023-12-04T04:22:27;19.13;;;10.82;;
37455;SDS011;23316;50.718;7.328;2023-12-04T04:24:55;22.98;;;12.45;;
37455;SDS011;23316;50.718;7.328;2023-12-04T04:27:22;22.48;;;12.00;;
37455;SDS011;23316;50.718;7.328;2023-12-04T04:29:50;19.92;;;12.00;;
37455;SDS011;23316;50.718;7.328;2023-12-04T04:32:17;26.10;;;12.13;;
37455;SDS011;23316;50.718;7.328;2023-12-04T04:34:44;22.13;;;11.98;;
37455;SDS011;23316;50.718;7.328;2023-12-04T04:37:12;22.15;;;12.75;;
37455;SDS011;23316;50.718;7.328;2023-12-04T04:39:41;24.45;;;12.93;;
37455;SDS011;23316;50.718;7.328;2023-12-04T04:42:08;21.05;;;12.05;;
37455;SDS011;23316;50.718;7.328;2023-12-04T04:44:35;22.75;;;12.68;;
37455;SDS011;23316;50.718;7.328;2023-12-04T04:47:02;22.38;;;12.70;;
37455;SDS011;23316;50.718;7.328;2023-12-04T04:49:30;23.20;;;13.35;;
37455;SDS011;23316;50.718;7.328;2023-12-04T04:51:57;26.60;;;14.27;;
37455;SDS011;23316;50.718;7.328;2023-12-04T04:54:24;28.75;;;14.85;;
37455;SDS011;23316;50.718;7.328;2023-12-04T04:56:53;26.35;;;14.60;;
37455;SDS011;23316;50.718;7.328;2023-12-04T04:59:20;28.65;;;16.08;;
37455;SDS011;23316;50.718;7.328;2023-12-04T05:01:47;28.83;;;14.65;;
37455;SDS011;23316;50.718;7.328;2023-12-04T05:04:15;30.05;;;16.50;;
37455;SDS011;23316;50.718;7.328;2023-12-04T05:06:42;25.92;;;14.30;;
37455;SDS011;23316;50.718;7.328;2023-12-04T05:09:09;26.90;;;15.27;;
37455;SDS011;23316;50.718;7.328;2023-12-04T05:11:36;29.10;;;16.25;;
37455;SDS011;23316;50.718;7.328;2023-12-04T05:14:05;28.77;;;15.30;;
37455;SDS011;23316;50.718;7.328;2023-12-04T05:16:32;25.92;;;14.70;;
37455;SDS011;23316;50.718;7.328;2023-12-04T05:18:59;25.52;;;14.57;;
37455;SDS011;23316;50.718;7.328;2023-12-04T05:21:26;26.52;;;14.07;;
37455;SDS011;23316;50.718;7.328;2023-12-04T05:23:54;27.90;;;14.82;;
37455;SDS011;23316;50.718;7.328;2023-12-04T05:26:21;35.85;;;18.88;;
37455;SDS011;23316;50.718;7.328;2023-12-04T05:28:48;31.42;;;16.05;;
37455;SDS011;23316;50.718;7.328;2023-12-04T05:31:17;30.20;;;15.27;;
37455;SDS011;23316;50.718;7.328;2023-12-04T05:33:44;28.88;;;15.73;;
37455;SDS011;23316;50.718;7.328;2023-12-04T05:36:12;31.83;;;16.73;;
37455;SDS011;23316;50.718;7.328;2023-12-04T05:38:39;25.00;;;14.85;;
37455;SDS011;23316;50.718;7.328;2023-12-04T05:41:06;26.85;;;14.13;;
37455;SDS011;23316;50.718;7.328;2023-12-04T05:43:33;24.75;;;14.70;;
37455;SDS011;23316;50.718;7.328;2023-12-04T05:46:01;26.90;;;14.88;;
37455;SDS011;23316;50.718;7.328;2023-12-04T05:48:29;28.08;;;14.95;;
37455;SDS011;23316;50.718;7.328;2023-12-04T05:50:56;27.48;;;14.52;;
37455;SDS011;23316;50.718;7.328;2023-12-04T05:53:24;27.42;;;14.98;;
37455;SDS011;23316;50.718;7.328;2023-12-04T05:55:51;30.55;;;15.38;;
37455;SDS011;23316;50.718;7.328;2023-12-04T05:58:18;25.42;;;13.95;;
37455;SDS011;23316;50.718;7.328;2023-12-04T06:00:46;37.97;;;19.60;;
37455;SDS011;23316;50.718;7.328;2023-12-04T06:03:13;31.92;;;16.52;;
37455;SDS011;23316;50.718;7.328;2023-12-04T06:05:42;27.30;;;14.60;;
37455;SDS011;23316;50.718;7.328;2023-12-04T06:08:09;26.75;;;15.05;;
37455;SDS011;23316;50.718;7.328;2023-12-04T06:10:36;29.70;;;15.60;;
37455;SDS011;23316;50.718;7.328;2023-12-04T06:13:03;29.90;;;16.10;;
37455;SDS011;23316;50.718;7.328;2023-12-04T06:15:30;26.38;;;15.07;;
37455;SDS011;23316;50.718;7.328;2023-12-04T06:17:58;32.00;;;15.90;;
37455;SDS011;23316;50.718;7.328;2023-12-04T06:20:25;26.50;;;15.07;;
37455;SDS011;23316;50.718;7.328;2023-12-04T06:22:54;64.05;;;27.05;;
37455;SDS011;23316;50.718;7.328;2023-12-04T06:25:22;32.40;;;17.25;;
37455;SDS011;23316;50.718;7.328;2023-12-04T06:27:49;31.92;;;15.90;;
37455;SDS011;23316;50.718;7.328;2023-12-04T06:30:18;26.42;;;14.50;;
37455;SDS011;23316;50.718;7.328;2023-12-04T06:32:46;26.75;;;15.25;;
37455;SDS011;23316;50.718;7.328;2023-12-04T06:35:14;28.55;;;14.93;;
37455;SDS011;23316;50.718;7.328;2023-12-04T06:37:42;31.15;;;16.88;;
37455;SDS011;23316;50.718;7.328;2023-12-04T06:40:13;31.63;;;16.15;;
37455;SDS011;23316;50.718;7.328;2023-12-04T06:42:41;24.95;;;14.50;;
37455;SDS011;23316;50.718;7.328;2023-12-04T06:45:09;29.85;;;15.95;;
37455;SDS011;23316;50.718;7.328;2023-12-04T06:47:37;33.65;;;16.90;;
37455;SDS011;23316;50.718;7.328;2023-12-04T06:50:07;29.02;;;15.18;;
37455;SDS011;23316;50.718;7.328;2023-12-04T06:52:34;32.40;;;15.15;;
37455;SDS011;23316;50.718;7.328;2023-12-04T06:55:02;28.48;;;15.82;;
37455;SDS011;23316;50.718;7.328;2023-12-04T06:57:31;31.25;;;15.60;;
37455;SDS011;23316;50.718;7.328;2023-12-04T06:59:58;30.75;;;15.85;;
37455;SDS011;23316;50.718;7.328;2023-12-04T07:02:25;27.15;;;14.95;;
37455;SDS011;23316;50.718;7.328;2023-12-04T07:04:52;26.60;;;15.13;;
37455;SDS011;23316;50.718;7.328;2023-12-04T07:07:20;29.48;;;15.32;;
37455;SDS011;23316;50.718;7.328;2023-12-04T07:09:47;29.55;;;15.75;;
37455;SDS011;23316;50.718;7.328;2023-12-04T07:12:14;28.02;;;15.07;;
37455;SDS011;23316;50.718;7.328;2023-12-04T07:14:43;30.10;;;15.50;;
37455;SDS011;23316;50.718;7.328;2023-12-04T07:17:10;27.65;;;15.07;;
37455;SDS011;23316;50.718;7.328;2023-12-04T07:19:38;30.67;;;15.55;;
37455;SDS011;23316;50.718;7.328;2023-12-04T07:22:07;31.40;;;15.30;;
37455;SDS011;23316;50.718;7.328;2023-12-04T07:24:34;28.23;;;14.40;;
37455;SDS011;23316;50.718;7.328;2023-12-04T07:27:02;27.60;;;15.20;;
37455;SDS011;23316;50.718;7.328;2023-12-04T07:29:29;31.45;;;16.52;;
37455;SDS011;23316;50.718;7.328;2023-12-04T07:31:58;28.70;;;15.25;;
37455;SDS011;23316;50.718;7.328;2023-12-04T07:34:25;29.65;;;15.45;;
37455;SDS011;23316;50.718;7.328;2023-12-04T07:36:53;31.70;;;15.93;;
37455;SDS011;23316;50.718;7.328;2023-12-04T07:39:21;27.52;;;14.80;;
37455;SDS011;23316;50.718;7.328;2023-12-04T07:41:48;26.98;;;14.70;;
37455;SDS011;23316;50.718;7.328;2023-12-04T07:44:15;29.42;;;15.55;;
37455;SDS011;23316;50.718;7.328;2023-12-04T07:46:43;28.90;;;14.13;;
37455;SDS011;23316;50.718;7.328;2023-12-04T07:49:11;26.50;;;15.18;;
37455;SDS011;23316;50.718;7.328;2023-12-04T07:51:39;27.55;;;14.77;;
37455;SDS011;23316;50.718;7.328;2023-12-04T07:54:06;28.52;;;15.73;;
37455;SDS011;23316;50.718;7.328;2023-12-04T07:56:33;30.63;;;16.25;;
37455;SDS011;23316;50.718;7.328;2023-12-04T07:59:00;26.73;;;15.02;;
37455;SDS011;23316;50.718;7.328;2023-12-04T08:01:27;26.30;;;14.65;;
37455;SDS011;23316;50.718;7.328;2023-12-04T08:03:55;28.85;;;15.43;;
37455;SDS011;23316;50.718;7.328;2023-12-04T08:06:23;31.83;;;15.85;;
37455;SDS011;23316;50.718;7.328;2023-12-04T08:08:51;93.53;;;37.45;;
37455;SDS011;23316;50.718;7.328;2023-12-04T08:11:18;31.70;;;16.25;;
37455;SDS011;23316;50.718;7.328;2023-12-04T08:13:45;29.30;;;16.20;;
37455;SDS011;23316;50.718;7.328;2023-12-04T08:16:13;27.10;;;14.82;;
37455;SDS011;23316;50.718;7.328;2023-12-04T08:18:41;36.03;;;18.45;;
37455;SDS011;23316;50.718;7.328;2023-12-04T08:21:09;30.63;;;15.88;;
37455;SDS011;23316;50.718;7.328;2023-12-04T08:23:38;27.23;;;14.73;;
37455;SDS011;23316;50.718;7.328;2023-12-04T08:26:06;25.35;;;14.50;;
37455;SDS011;23316;50.718;7.328;2023-12-04T08:28:33;29.98;;;15.02;;
37455;SDS011;23316;50.718;7.328;2023-12-04T08:31:03;27.15;;;15.05;;
37455;SDS011;23316;50.718;7.328;2023-12-04T08:33:33;27.63;;;15.05;;
37455;SDS011;23316;50.718;7.328;2023-12-04T08:36:00;27.98;;;14.60;;
37455;SDS011;23316;50.718;7.328;2023-12-04T08:38:27;26.40;;;13.13;;
37455;SDS011;23316;50.718;7.328;2023-12-04T08:40:56;26.85;;;14.52;;
37455;SDS011;23316;50.718;7.328;2023-12-04T08:43:23;27.13;;;14.38;;
37455;SDS011;23316;50.718;7.328;2023-12-04T08:45:50;23.05;;;13.85;;
37455;SDS011;23316;50.718;7.328;2023-12-04T08:48:17;26.20;;;14.15;;
37455;SDS011;23316;50.718;7.328;2023-12-04T08:50:45;26.08;;;14.32;;
37455;SDS011;23316;50.718;7.328;2023-12-04T08:53:13;24.08;;;13.82;;
37455;SDS011;23316;50.718;7.328;2023-12-04T08:55:41;24.80;;;13.15;;
37455;SDS011;23316;50.718;7.328;2023-12-04T08:58:09;25.05;;;14.23;;
37455;SDS011;23316;50.718;7.328;2023-12-04T09:00:37;23.17;;;12.77;;
37455;SDS011;23316;50.718;7.328;2023-12-04T09:03:08;26.00;;;13.63;;
37455;SDS011;23316;50.718;7.328;2023-12-04T09:05:36;22.25;;;12.75;;
37455;SDS011;23316;50.718;7.328;2023-12-04T09:08:03;23.98;;;13.30;;
37455;SDS011;23316;50.718;7.328;2023-12-04T09:10:31;24.98;;;12.77;;
37455;SDS011;23316;50.718;7.328;2023-12-04T09:12:58;22.45;;;13.23;;
37455;SDS011;23316;50.718;7.328;2023-12-04T09:15:27;23.50;;;13.30;;
37455;SDS011;23316;50.718;7.328;2023-12-04T09:17:54;24.73;;;13.95;;
37455;SDS011;23316;50.718;7.328;2023-12-04T09:20:21;19.70;;;12.38;;
37455;SDS011;23316;50.718;7.328;2023-12-04T09:22:49;27.13;;;12.82;;
37455;SDS011;23316;50.718;7.328;2023-12-04T09:25:16;22.38;;;12.32;;
37455;SDS011;23316;50.718;7.328;2023-12-04T09:27:43;32.08;;;15.77;;
37455;SDS011;23316;50.718;7.328;2023-12-04T09:30:12;23.33;;;12.68;;
37455;SDS011;23316;50.718;7.328;2023-12-04T09:32:41;22.70;;;12.65;;
37455;SDS011;23316;50.718;7.328;2023-12-04T09:35:09;23.75;;;13.50;;
37455;SDS011;23316;50.718;7.328;2023-12-04T09:37:36;24.67;;;13.23;;
37455;SDS011;23316;50.718;7.328;2023-12-04T09:40:04;23.70;;;13.43;;
37455;SDS011;23316;50.718;7.328;2023-12-04T09:42:33;28.33;;;13.45;;
37455;SDS011;23316;50.718;7.328;2023-12-04T09:45:01;23.73;;;11.75;;
37455;SDS011;23316;50.718;7.328;2023-12-04T09:47:28;23.85;;;11.65;;
37455;SDS011;23316;50.718;7.328;2023-12-04T09:49:57;22.25;;;11.73;;
37455;SDS011;23316;50.718;7.328;2023-12-04T09:52:26;26.13;;;12.73;;
37455;SDS011;23316;50.718;7.328;2023-12-04T09:54:54;25.02;;;13.82;;
37455;SDS011;23316;50.718;7.328;2023-12-04T09:57:21;19.48;;;11.65;;
37455;SDS011;23316;50.718;7.328;2023-12-04T09:59:50;23.73;;;11.60;;
37455;SDS011;23316;50.718;7.328;2023-12-04T10:02:18;20.88;;;11.65;;
37455;SDS011;23316;50.718;7.328;2023-12-04T10:04:47;19.58;;;11.90;;
37455;SDS011;23316;50.718;7.328;2023-12-04T10:07:15;24.13;;;13.52;;
37455;SDS011;23316;50.718;7.328;2023-12-04T10:09:42;24.45;;;12.25;;
37455;SDS011;23316;50.718;7.328;2023-12-04T10:12:10;24.98;;;12.75;;
37455;SDS011;23316;50.718;7.328;2023-12-04T10:14:39;20.48;;;11.32;;
37455;SDS011;23316;50.718;7.328;2023-12-04T10:17:15;21.80;;;11.93;;
37455;SDS011;23316;50.718;7.328;2023-12-04T10:19:43;22.73;;;13.05;;
37455;SDS011;23316;50.718;7.328;2023-12-04T10:22:11;20.17;;;12.07;;
37455;SDS011;23316;50.718;7.328;2023-12-04T10:24:41;21.85;;;12.00;;
37455;SDS011;23316;50.718;7.328;2023-12-04T10:27:09;20.23;;;11.63;;
37455;SDS011;23316;50.718;7.328;2023-12-04T10:29:41;19.27;;;11.23;;
37455;SDS011;23316;50.718;7.328;2023-12-04T10:32:10;21.45;;;11.10;;
37455;SDS011;23316;50.718;7.328;2023-12-04T10:34:37;18.38;;;10.88;;
37455;SDS011;23316;50.718;7.328;2023-12-04T10:37:04;18.95;;;10.18;;
37455;SDS011;23316;50.718;7.328;2023-12-04T10:39:33;19.75;;;11.20;;
37455;SDS011;23316;50.718;7.328;2023-12-04T10:42:22;24.05;;;12.07;;
37455;SDS011;23316;50.718;7.328;2023-12-04T10:44:51;16.98;;;10.20;;
37455;SDS011;23316;50.718;7.328;2023-12-04T10:47:19;18.35;;;9.40;;
37455;SDS011;23316;50.718;7.328;2023-12-04T10:49:48;17.60;;;10.70;;
37455;SDS011;23316;50.718;7.328;2023-12-04T10:52:16;20.67;;;10.52;;
37455;SDS011;23316;50.718;7.328;2023-12-04T10:54:47;20.13;;;10.48;;
37455;SDS011;23316;50.718;7.328;2023-12-04T10:57:16;19.70;;;10.57;;
37455;SDS011;23316;50.718;7.328;2023-12-04T10:59:48;20.17;;;10.30;;
37455;SDS011;23316;50.718;7.328;2023-12-04T11:02:18;21.50;;;10.90;;
37455;SDS011;23316;50.718;7.328;2023-12-04T11:04:48;18.48;;;10.75;;
37455;SDS011;23316;50.718;7.328;2023-12-04T11:07:17;20.90;;;11.90;;
37455;SDS011;23316;50.718;7.328;2023-12-04T11:09:47;23.35;;;11.90;;
37455;SDS011;23316;50.718;7.328;2023-12-04T11:12:18;21.63;;;10.75;;
37455;SDS011;23316;50.718;7.328;2023-12-04T11:14:52;22.25;;;11.95;;
37455;SDS011;23316;50.718;7.328;2023-12-04T11:17:23;19.77;;;11.00;;
37455;SDS011;23316;50.718;7.328;2023-12-04T11:19:55;18.15;;;10.43;;
37455;SDS011;23316;50.718;7.328;2023-12-04T11:22:27;19.00;;;10.30;;
37455;SDS011;23316;50.718;7.328;2023-12-04T11:24:56;18.50;;;10.85;;
37455;SDS011;23316;50.718;7.328;2023-12-04T11:27:24;19.35;;;10.05;;
37455;SDS011;23316;50.718;7.328;2023-12-04T11:29:51;19.35;;;11.50;;
37455;SDS011;23316;50.718;7.328;2023-12-04T11:32:19;19.77;;;12.00;;
37455;SDS011;23316;50.718;7.328;2023-12-04T11:34:54;19.05;;;11.60;;
37455;SDS011;23316;50.718;7.328;2023-12-04T11:37:22;19.23;;;10.98;;
37455;SDS011;23316;50.718;7.328;2023-12-04T11:39:50;18.30;;;10.93;;
37455;SDS011;23316;50.718;7.328;2023-12-04T11:42:23;19.35;;;10.57;;
37455;SDS011;23316;50.718;7.328;2023-12-04T11:44:55;17.97;;;10.97;;
37455;SDS011;23316;50.718;7.328;2023-12-04T11:47:24;17.80;;;10.20;;
37455;SDS011;23316;50.718;7.328;2023-12-04T11:49:51;17.77;;;10.82;;
37455;SDS011;23316;50.718;7.328;2023-12-04T11:52:19;18.77;;;10.85;;
37455;SDS011;23316;50.718;7.328;2023-12-04T11:55:00;17.33;;;10.32;;
37455;SDS011;23316;50.718;7.328;2023-12-04T11:57:33;20.70;;;11.07;;
37455;SDS011;23316;50.718;7.328;2023-12-04T12:00:08;24.23;;;11.65;;
37455;SDS011;23316;50.718;7.328;2023-12-04T12:02:46;21.40;;;11.00;;
37455;SDS011;23316;50.718;7.328;2023-12-04T12:05:15;23.70;;;11.10;;
37455;SDS011;23316;50.718;7.328;2023-12-04T12:07:43;21.17;;;11.63;;
37455;SDS011;23316;50.718;7.328;2023-12-04T12:10:11;24.02;;;11.50;;
37455;SDS011;23316;50.718;7.328;2023-12-04T12:12:40;22.60;;;12.48;;
37455;SDS011;23316;50.718;7.328;2023-12-04T12:15:08;22.65;;;12.32;;
37455;SDS011;23316;50.718;7.328;2023-12-04T12:17:37;24.75;;;13.23;;
37455;SDS011;23316;50.718;7.328;2023-12-04T12:20:05;28.13;;;13.43;;
37455;SDS011;23316;50.718;7.328;2023-12-04T12:22:33;22.85;;;13.23;;
37455;SDS011;23316;50.718;7.328;2023-12-04T12:25:01;25.45;;;13.05;;
37455;SDS011;23316;50.718;7.328;2023-12-04T12:27:32;21.33;;;12.70;;
37455;SDS011;23316;50.718;7.328;2023-12-04T12:30:00;22.88;;;12.98;;
37455;SDS011;23316;50.718;7.328;2023-12-04T12:32:29;20.15;;;12.20;;
37455;SDS011;23316;50.718;7.328;2023-12-04T12:34:57;24.40;;;13.15;;
37455;SDS011;23316;50.718;7.328;2023-12-04T12:37:24;24.05;;;13.07;;
37455;SDS011;23316;50.718;7.328;2023-12-04T12:39:51;23.23;;;13.10;;
37455;SDS011;23316;50.718;7.328;2023-12-04T12:42:21;22.63;;;13.38;;
37455;SDS011;23316;50.718;7.328;2023-12-04T12:44:51;23.35;;;13.85;;
37455;SDS011;23316;50.718;7.328;2023-12-04T12:47:20;24.90;;;13.43;;
37455;SDS011;23316;50.718;7.328;2023-12-04T12:49:48;23.08;;;13.57;;
37455;SDS011;23316;50.718;7.328;2023-12-04T12:52:15;23.65;;;13.02;;
37455;SDS011;23316;50.718;7.328;2023-12-04T12:54:43;25.38;;;13.57;;
37455;SDS011;23316;50.718;7.328;2023-12-04T12:57:11;25.45;;;13.35;;
37455;SDS011;23316;50.718;7.328;2023-12-04T12:59:38;21.92;;;12.55;;
37455;SDS011;23316;50.718;7.328;2023-12-04T13:02:06;24.17;;;12.80;;
37455;SDS011;23316;50.718;7.328;2023-12-04T13:04:37;24.90;;;13.07;;
37455;SDS011;23316;50.718;7.328;2023-12-04T13:07:08;24.13;;;13.52;;
37455;SDS011;23316;50.718;7.328;2023-12-04T13:09:36;24.90;;;13.73;;
37455;SDS011;23316;50.718;7.328;2023-12-04T13:12:03;23.95;;;13.35;;
37455;SDS011;23316;50.718;7.328;2023-12-04T13:14:31;23.52;;;12.63;;
37455;SDS011;23316;50.718;7.328;2023-12-04T13:17:00;21.40;;;13.27;;
37455;SDS011;23316;50.718;7.328;2023-12-04T13:19:27;24.60;;;13.48;;
37455;SDS011;23316;50.718;7.328;2023-12-04T13:21:58;23.23;;;13.15;;
37455;SDS011;23316;50.718;7.328;2023-12-04T13:24:25;22.58;;;12.90;;
37455;SDS011;23316;50.718;7.328;2023-12-04T13:26:53;23.48;;;13.18;;
37455;SDS011;23316;50.718;7.328;2023-12-04T13:29:20;25.40;;;13.63;;
37455;SDS011;23316;50.718;7.328;2023-12-04T13:31:48;22.98;;;13.07;;
37455;SDS011;23316;50.718;7.328;2023-12-04T13:34:16;23.65;;;12.93;;
37455;SDS011;23316;50.718;7.328;2023-12-04T13:36:43;25.38;;;12.98;;
37455;SDS011;23316;50.718;7.328;2023-12-04T13:39:12;26.30;;;12.60;;
37455;SDS011;23316;50.718;7.328;2023-12-04T13:41:45;19.10;;;11.48;;
37455;SDS011;23316;50.718;7.328;2023-12-04T13:44:30;20.85;;;11.73;;
37455;SDS011;23316;50.718;7.328;2023-12-04T13:46:58;19.60;;;11.65;;
37455;SDS011;23316;50.718;7.328;2023-12-04T13:49:26;21.20;;;11.93;;
37455;SDS011;23316;50.718;7.328;2023-12-04T13:51:53;21.63;;;11.70;;
37455;SDS011;23316;50.718;7.328;2023-12-04T13:54:22;21.83;;;12.07;;
37455;SDS011;23316;50.718;7.328;2023-12-04T13:57:00;20.67;;;11.63;;
37455;SDS011;23316;50.718;7.328;2023-12-04T13:59:29;17.65;;;10.13;;
37455;SDS011;23316;50.718;7.328;2023-12-04T14:01:59;20.38;;;11.45;;
37455;SDS011;23316;50.718;7.328;2023-12-04T14:04:29;20.27;;;11.57;;
37455;SDS011;23316;50.718;7.328;2023-12-04T14:06:57;23.02;;;11.48;;
37455;SDS011;23316;50.718;7.328;2023-12-04T14:09:25;19.52;;;11.43;;
37455;SDS011;23316;50.718;7.328;2023-12-04T14:11:52;18.60;;;10.10;;
37455;SDS011;23316;50.718;7.328;2023-12-04T14:14:20;19.15;;;11.73;;
37455;SDS011;23316;50.718;7.328;2023-12-04T14:16:47;16.13;;;10.15;;
37455;SDS011;23316;50.718;7.328;2023-12-04T14:19:14;19.33;;;11.23;;
37455;SDS011;23316;50.718;7.328;2023-12-04T14:21:43;23.00;;;11.02;;
37455;SDS011;23316;50.718;7.328;2023-12-04T14:24:10;17.35;;;10.13;;
37455;SDS011;23316;50.718;7.328;2023-12-04T14:26:39;18.38;;;10.43;;